sensor_id;sensor_type;location;lat;lon;timestamp;temperature;humidity
14755;DHT22;7469;50.906;6.952;2023-06-19T00:01:20;23.30;90.10
14755;DHT22;7469;50.906;6.952;2023-06-19T00:03:48;23.20;90.60
14755;DHT22;7469;50.906;6.952;2023-06-19T00:06:16;23.20;91.10
14755;DHT22;7469;50.906;6.952;2023-06-19T00:08:44;23.10;91.60
14755;DHT22;7469;50.906;6.952;2023-06-19T00:11:12;23.10;92.10
14755;DHT22;7469;50.906;6.952;2023-06-19T00:13:41;23.00;92.30
14755;DHT22;7469;50.906;6.952;2023-06-19T00:16:09;23.10;92.50
14755;DHT22;7469;50.906;6.952;2023-06-19T00:18:37;23.00;92.70
14755;DHT22;7469;50.906;6.952;2023-06-19T00:21:07;23.00;93.00
14755;DHT22;7469;50.906;6.952;2023-06-19T00:23:36;23.00;93.30
14755;DHT22;7469;50.906;6.952;2023-06-19T00:26:04;22.90;93.70
14755;DHT22;7469;50.906;6.952;2023-06-19T00:28:33;22.80;94.00
14755;DHT22;7469;50.906;6.952;2023-06-19T00:31:07;22.80;94.40
14755;DHT22;7469;50.906;6.952;2023-06-19T00:33:35;22.80;94.60
14755;DHT22;7469;50.906;6.952;2023-06-19T00:36:09;22.80;94.80
14755;DHT22;7469;50.906;6.952;2023-06-19T00:38:37;22.70;95.10
14755;DHT22;7469;50.906;6.952;2023-06-19T00:41:05;22.70;95.50
14755;DHT22;7469;50.906;6.952;2023-06-19T00:43:34;22.70;95.80
14755;DHT22;7469;50.906;6.952;2023-06-19T00:46:03;22.60;96.20
14755;DHT22;7469;50.906;6.952;2023-06-19T00:48:33;22.60;96.60
14755;DHT22;7469;50.906;6.952;2023-06-19T00:51:01;22.60;97.10
14755;DHT22;7469;50.906;6.952;2023-06-19T00:53:31;22.50;97.40
14755;DHT22;7469;50.906;6.952;2023-06-19T00:56:00;22.60;97.70
14755;DHT22;7469;50.906;6.952;2023-06-19T00:58:28;22.50;97.80
14755;DHT22;7469;50.906;6.952;2023-06-19T01:00:56;22.60;98.10
14755;DHT22;7469;50.906;6.952;2023-06-19T01:03:36;22.50;98.20
14755;DHT22;7469;50.906;6.952;2023-06-19T01:06:07;22.50;98.40
14755;DHT22;7469;50.906;6.952;2023-06-19T01:08:49;22.50;98.60
14755;DHT22;7469;50.906;6.952;2023-06-19T01:11:21;22.50;98.80
14755;DHT22;7469;50.906;6.952;2023-06-19T01:13:55;22.40;99.00
14755;DHT22;7469;50.906;6.952;2023-06-19T01:16:25;22.40;99.20
14755;DHT22;7469;50.906;6.952;2023-06-19T01:18:56;22.40;99.30
14755;DHT22;7469;50.906;6.952;2023-06-19T01:21:23;22.40;99.50
14755;DHT22;7469;50.906;6.952;2023-06-19T01:23:53;22.40;99.60
14755;DHT22;7469;50.906;6.952;2023-06-19T01:26:23;22.30;99.70
14755;DHT22;7469;50.906;6.952;2023-06-19T01:28:53;22.30;99.90
14755;DHT22;7469;50.906;6.952;2023-06-19T01:31:26;22.30;99.90
14755;DHT22;7469;50.906;6.952;2023-06-19T01:33:56;22.30;99.90
14755;DHT22;7469;50.906;6.952;2023-06-19T01:36:24;22.30;99.90
14755;DHT22;7469;50.906;6.952;2023-06-19T01:38:57;22.30;99.90
14755;DHT22;7469;50.906;6.952;2023-06-19T01:41:26;22.30;99.90
14755;DHT22;7469;50.906;6.952;2023-06-19T01:43:57;22.40;99.90
14755;DHT22;7469;50.906;6.952;2023-06-19T01:46:25;22.40;99.90
14755;DHT22;7469;50.906;6.952;2023-06-19T01:48:53;22.40;99.90
14755;DHT22;7469;50.906;6.952;2023-06-19T01:51:22;22.40;99.90
14755;DHT22;7469;50.906;6.952;2023-06-19T01:53:49;22.40;99.90
14755;DHT22;7469;50.906;6.952;2023-06-19T01:56:19;22.40;99.90
14755;DHT22;7469;50.906;6.952;2023-06-19T01:58:47;22.40;99.90
14755;DHT22;7469;50.906;6.952;2023-06-19T02:01:15;22.30;99.90
14755;DHT22;7469;50.906;6.952;2023-06-19T02:03:43;22.30;99.90
14755;DHT22;7469;50.906;6.952;2023-06-19T02:06:11;22.30;99.90
14755;DHT22;7469;50.906;6.952;2023-06-19T02:08:40;22.30;99.90
14755;DHT22;7469;50.906;6.952;2023-06-19T02:11:07;22.30;99.90
14755;DHT22;7469;50.906;6.952;2023-06-19T02:13:37;22.30;99.90
14755;DHT22;7469;50.906;6.952;2023-06-19T02:16:06;22.40;99.90
14755;DHT22;7469;50.906;6.952;2023-06-19T02:18:34;22.40;99.90
14755;DHT22;7469;50.906;6.952;2023-06-19T02:21:02;22.40;99.90
14755;DHT22;7469;50.906;6.952;2023-06-19T02:23:30;22.40;99.90
14755;DHT22;7469;50.906;6.952;2023-06-19T02:25:58;22.40;99.90
14755;DHT22;7469;50.906;6.952;2023-06-19T02:28:26;22.40;99.90
14755;DHT22;7469;50.906;6.952;2023-06-19T02:30:55;22.40;99.90
14755;DHT22;7469;50.906;6.952;2023-06-19T02:33:23;22.40;99.90
14755;DHT22;7469;50.906;6.952;2023-06-19T02:35:51;22.50;99.90
14755;DHT22;7469;50.906;6.952;2023-06-19T02:38:19;22.50;99.90
14755;DHT22;7469;50.906;6.952;2023-06-19T02:40:48;22.50;99.90
14755;DHT22;7469;50.906;6.952;2023-06-19T02:43:16;22.50;99.90
14755;DHT22;7469;50.906;6.952;2023-06-19T02:45:44;22.50;99.90
14755;DHT22;7469;50.906;6.952;2023-06-19T02:48:13;22.50;99.90
14755;DHT22;7469;50.906;6.952;2023-06-19T02:50:41;22.50;99.90
14755;DHT22;7469;50.906;6.952;2023-06-19T02:53:09;22.40;99.90
14755;DHT22;7469;50.906;6.952;2023-06-19T02:55:37;22.40;99.90
14755;DHT22;7469;50.906;6.952;2023-06-19T02:58:05;22.40;99.90
14755;DHT22;7469;50.906;6.952;2023-06-19T03:00:33;22.40;99.90
14755;DHT22;7469;50.906;6.952;2023-06-19T03:03:01;22.40;99.90
14755;DHT22;7469;50.906;6.952;2023-06-19T03:05:31;22.40;99.90
14755;DHT22;7469;50.906;6.952;2023-06-19T03:07:59;22.40;99.90
14755;DHT22;7469;50.906;6.952;2023-06-19T03:10:27;22.40;99.90
14755;DHT22;7469;50.906;6.952;2023-06-19T03:12:55;22.50;99.90
14755;DHT22;7469;50.906;6.952;2023-06-19T03:15:25;22.40;99.90
14755;DHT22;7469;50.906;6.952;2023-06-19T03:17:53;22.40;99.90
14755;DHT22;7469;50.906;6.952;2023-06-19T03:20:21;22.40;99.90
14755;DHT22;7469;50.906;6.952;2023-06-19T03:22:50;22.40;99.90
14755;DHT22;7469;50.906;6.952;2023-06-19T03:25:18;22.30;99.90
14755;DHT22;7469;50.906;6.952;2023-06-19T03:27:47;22.30;99.90
14755;DHT22;7469;50.906;6.952;2023-06-19T03:30:15;22.30;99.90
14755;DHT22;7469;50.906;6.952;2023-06-19T03:32:45;22.30;99.90
14755;DHT22;7469;50.906;6.952;2023-06-19T03:35:13;22.20;99.90
14755;DHT22;7469;50.906;6.952;2023-06-19T03:37:41;22.20;99.90
14755;DHT22;7469;50.906;6.952;2023-06-19T03:40:11;22.20;99.90
14755;DHT22;7469;50.906;6.952;2023-06-19T03:42:40;22.20;99.90
14755;DHT22;7469;50.906;6.952;2023-06-19T03:45:09;22.20;99.90
14755;DHT22;7469;50.906;6.952;2023-06-19T03:47:37;22.20;99.90
14755;DHT22;7469;50.906;6.952;2023-06-19T03:50:06;22.20;99.90
14755;DHT22;7469;50.906;6.952;2023-06-19T03:52:56;22.20;99.90
14755;DHT22;7469;50.906;6.952;2023-06-19T03:55:25;22.10;99.90
14755;DHT22;7469;50.906;6.952;2023-06-19T03:57:53;22.10;99.90
14755;DHT22;7469;50.906;6.952;2023-06-19T04:00:21;22.10;99.90
14755;DHT22;7469;50.906;6.952;2023-06-19T04:02:50;22.10;99.90
14755;DHT22;7469;50.906;6.952;2023-06-19T04:05:18;22.10;99.90
14755;DHT22;7469;50.906;6.952;2023-06-19T04:07:47;22.10;99.90
14755;DHT22;7469;50.906;6.952;2023-06-19T04:10:16;22.00;99.90
14755;DHT22;7469;50.906;6.952;2023-06-19T04:12:46;22.00;99.90
14755;DHT22;7469;50.906;6.952;2023-06-19T04:15:14;22.00;99.90
14755;DHT22;7469;50.906;6.952;2023-06-19T04:17:42;22.00;99.90
14755;DHT22;7469;50.906;6.952;2023-06-19T04:20:11;22.00;99.90
14755;DHT22;7469;50.906;6.952;2023-06-19T04:22:39;22.00;99.90
14755;DHT22;7469;50.906;6.952;2023-06-19T04:25:08;22.00;99.90
14755;DHT22;7469;50.906;6.952;2023-06-19T04:27:37;22.00;99.90
14755;DHT22;7469;50.906;6.952;2023-06-19T04:30:07;22.00;99.90
14755;DHT22;7469;50.906;6.952;2023-06-19T04:32:35;22.00;99.90
14755;DHT22;7469;50.906;6.952;2023-06-19T04:35:04;22.10;99.90
14755;DHT22;7469;50.906;6.952;2023-06-19T04:37:32;22.10;99.90
14755;DHT22;7469;50.906;6.952;2023-06-19T04:40:00;22.20;99.90
14755;DHT22;7469;50.906;6.952;2023-06-19T04:42:30;22.20;99.90
14755;DHT22;7469;50.906;6.952;2023-06-19T04:44:59;22.20;99.90
14755;DHT22;7469;50.906;6.952;2023-06-19T04:47:28;22.20;99.90
14755;DHT22;7469;50.906;6.952;2023-06-19T04:50:16;22.20;99.90
14755;DHT22;7469;50.906;6.952;2023-06-19T04:52:44;22.30;99.90
14755;DHT22;7469;50.906;6.952;2023-06-19T04:55:12;22.30;99.90
14755;DHT22;7469;50.906;6.952;2023-06-19T04:57:40;22.30;99.90
14755;DHT22;7469;50.906;6.952;2023-06-19T05:00:09;22.30;99.90
14755;DHT22;7469;50.906;6.952;2023-06-19T05:02:39;22.40;99.90
14755;DHT22;7469;50.906;6.952;2023-06-19T05:05:10;22.40;99.90
14755;DHT22;7469;50.906;6.952;2023-06-19T05:07:38;22.40;99.90
14755;DHT22;7469;50.906;6.952;2023-06-19T05:10:07;22.40;99.90
14755;DHT22;7469;50.906;6.952;2023-06-19T05:12:35;22.50;99.90
14755;DHT22;7469;50.906;6.952;2023-06-19T05:15:04;22.50;99.90
14755;DHT22;7469;50.906;6.952;2023-06-19T05:17:32;22.40;99.90
14755;DHT22;7469;50.906;6.952;2023-06-19T05:20:02;22.50;99.90
14755;DHT22;7469;50.906;6.952;2023-06-19T05:22:31;22.40;99.90
14755;DHT22;7469;50.906;6.952;2023-06-19T05:25:00;22.40;99.90
14755;DHT22;7469;50.906;6.952;2023-06-19T05:27:28;22.50;99.90
14755;DHT22;7469;50.906;6.952;2023-06-19T05:29:57;22.50;99.90
14755;DHT22;7469;50.906;6.952;2023-06-19T05:32:25;22.60;99.90
14755;DHT22;7469;50.906;6.952;2023-06-19T05:34:53;22.70;99.90
14755;DHT22;7469;50.906;6.952;2023-06-19T05:37:22;22.70;99.90
14755;DHT22;7469;50.906;6.952;2023-06-19T05:39:50;22.70;99.90
14755;DHT22;7469;50.906;6.952;2023-06-19T05:42:18;22.70;99.90
14755;DHT22;7469;50.906;6.952;2023-06-19T05:44:46;22.60;99.90
14755;DHT22;7469;50.906;6.952;2023-06-19T05:47:14;22.70;99.90
14755;DHT22;7469;50.906;6.952;2023-06-19T05:49:43;22.70;99.90
14755;DHT22;7469;50.906;6.952;2023-06-19T05:52:11;22.80;99.90
14755;DHT22;7469;50.906;6.952;2023-06-19T05:54:41;22.80;99.90
14755;DHT22;7469;50.906;6.952;2023-06-19T05:57:09;22.90;99.90
14755;DHT22;7469;50.906;6.952;2023-06-19T05:59:38;22.90;99.90
14755;DHT22;7469;50.906;6.952;2023-06-19T06:02:06;23.10;99.90
14755;DHT22;7469;50.906;6.952;2023-06-19T06:04:34;23.10;99.90
14755;DHT22;7469;50.906;6.952;2023-06-19T06:07:03;23.20;99.90
14755;DHT22;7469;50.906;6.952;2023-06-19T06:09:31;23.20;99.90
14755;DHT22;7469;50.906;6.952;2023-06-19T06:12:01;23.30;99.90
14755;DHT22;7469;50.906;6.952;2023-06-19T06:14:29;23.30;99.90
14755;DHT22;7469;50.906;6.952;2023-06-19T06:16:57;23.30;99.90
14755;DHT22;7469;50.906;6.952;2023-06-19T06:19:25;23.40;99.90
14755;DHT22;7469;50.906;6.952;2023-06-19T06:21:53;23.60;99.90
14755;DHT22;7469;50.906;6.952;2023-06-19T06:24:21;23.70;99.90
14755;DHT22;7469;50.906;6.952;2023-06-19T06:26:49;23.80;99.90
14755;DHT22;7469;50.906;6.952;2023-06-19T06:29:18;24.00;99.60
14755;DHT22;7469;50.906;6.952;2023-06-19T06:31:47;24.00;99.20
14755;DHT22;7469;50.906;6.952;2023-06-19T06:34:15;24.10;98.90
14755;DHT22;7469;50.906;6.952;2023-06-19T06:36:43;24.20;98.60
14755;DHT22;7469;50.906;6.952;2023-06-19T06:39:30;24.30;98.40
14755;DHT22;7469;50.906;6.952;2023-06-19T06:41:58;24.30;98.10
14755;DHT22;7469;50.906;6.952;2023-06-19T06:44:28;24.30;97.60
14755;DHT22;7469;50.906;6.952;2023-06-19T06:46:56;24.20;97.20
14755;DHT22;7469;50.906;6.952;2023-06-19T06:49:24;24.20;97.10
14755;DHT22;7469;50.906;6.952;2023-06-19T06:51:52;24.30;96.70
14755;DHT22;7469;50.906;6.952;2023-06-19T06:54:23;24.40;96.30
14755;DHT22;7469;50.906;6.952;2023-06-19T06:56:51;24.40;96.00
14755;DHT22;7469;50.906;6.952;2023-06-19T06:59:22;24.50;95.90
14755;DHT22;7469;50.906;6.952;2023-06-19T07:01:52;24.60;95.90
14755;DHT22;7469;50.906;6.952;2023-06-19T07:04:20;24.60;95.80
14755;DHT22;7469;50.906;6.952;2023-06-19T07:06:48;24.60;95.90
14755;DHT22;7469;50.906;6.952;2023-06-19T07:09:16;24.70;95.80
14755;DHT22;7469;50.906;6.952;2023-06-19T07:11:44;24.70;95.80
14755;DHT22;7469;50.906;6.952;2023-06-19T07:14:12;24.70;95.70
14755;DHT22;7469;50.906;6.952;2023-06-19T07:16:40;24.90;95.30
14755;DHT22;7469;50.906;6.952;2023-06-19T07:19:09;25.00;95.00
14755;DHT22;7469;50.906;6.952;2023-06-19T07:21:37;25.00;93.60
14755;DHT22;7469;50.906;6.952;2023-06-19T07:24:06;25.10;92.70
14755;DHT22;7469;50.906;6.952;2023-06-19T07:26:35;25.10;91.70
14755;DHT22;7469;50.906;6.952;2023-06-19T07:29:03;25.30;91.00
14755;DHT22;7469;50.906;6.952;2023-06-19T07:31:31;25.30;90.30
14755;DHT22;7469;50.906;6.952;2023-06-19T07:33:59;25.60;89.50
14755;DHT22;7469;50.906;6.952;2023-06-19T07:36:28;25.70;87.70
14755;DHT22;7469;50.906;6.952;2023-06-19T07:38:56;25.70;86.00
14755;DHT22;7469;50.906;6.952;2023-06-19T07:41:24;25.70;84.10
14755;DHT22;7469;50.906;6.952;2023-06-19T07:43:52;25.80;83.40
14755;DHT22;7469;50.906;6.952;2023-06-19T07:46:20;25.80;82.30
14755;DHT22;7469;50.906;6.952;2023-06-19T07:48:48;25.80;81.20
14755;DHT22;7469;50.906;6.952;2023-06-19T07:51:16;25.80;80.70
14755;DHT22;7469;50.906;6.952;2023-06-19T07:53:46;25.90;80.20
14755;DHT22;7469;50.906;6.952;2023-06-19T07:56:14;26.00;79.50
14755;DHT22;7469;50.906;6.952;2023-06-19T07:58:42;26.10;78.60
14755;DHT22;7469;50.906;6.952;2023-06-19T08:01:09;26.10;78.00
14755;DHT22;7469;50.906;6.952;2023-06-19T08:03:38;26.10;78.20
14755;DHT22;7469;50.906;6.952;2023-06-19T08:06:06;26.10;77.10
14755;DHT22;7469;50.906;6.952;2023-06-19T08:08:34;26.10;77.00
14755;DHT22;7469;50.906;6.952;2023-06-19T08:11:03;26.00;77.20
14755;DHT22;7469;50.906;6.952;2023-06-19T08:13:31;26.00;77.00
14755;DHT22;7469;50.906;6.952;2023-06-19T08:15:59;26.00;77.00
14755;DHT22;7469;50.906;6.952;2023-06-19T08:18:27;26.00;76.80
14755;DHT22;7469;50.906;6.952;2023-06-19T08:20:55;26.10;76.70
14755;DHT22;7469;50.906;6.952;2023-06-19T08:23:23;26.20;77.80
14755;DHT22;7469;50.906;6.952;2023-06-19T08:25:51;26.20;76.90
14755;DHT22;7469;50.906;6.952;2023-06-19T08:28:21;26.30;76.70
14755;DHT22;7469;50.906;6.952;2023-06-19T08:30:49;26.40;76.60
14755;DHT22;7469;50.906;6.952;2023-06-19T08:33:17;26.50;76.40
14755;DHT22;7469;50.906;6.952;2023-06-19T08:35:45;26.50;76.00
14755;DHT22;7469;50.906;6.952;2023-06-19T08:38:14;26.60;75.50
14755;DHT22;7469;50.906;6.952;2023-06-19T08:40:43;26.70;75.10
14755;DHT22;7469;50.906;6.952;2023-06-19T08:43:11;26.70;74.90
14755;DHT22;7469;50.906;6.952;2023-06-19T08:45:40;26.80;74.50
14755;DHT22;7469;50.906;6.952;2023-06-19T08:48:13;26.90;73.80
14755;DHT22;7469;50.906;6.952;2023-06-19T08:50:41;27.10;72.90
14755;DHT22;7469;50.906;6.952;2023-06-19T08:53:09;27.20;71.90
14755;DHT22;7469;50.906;6.952;2023-06-19T08:55:37;27.40;70.70
14755;DHT22;7469;50.906;6.952;2023-06-19T08:58:05;27.40;70.10
14755;DHT22;7469;50.906;6.952;2023-06-19T09:00:33;27.60;68.90
14755;DHT22;7469;50.906;6.952;2023-06-19T09:03:03;27.90;67.10
14755;DHT22;7469;50.906;6.952;2023-06-19T09:05:41;28.20;64.40
14755;DHT22;7469;50.906;6.952;2023-06-19T09:08:18;28.50;61.50
14755;DHT22;7469;50.906;6.952;2023-06-19T09:10:58;29.00;58.70
14755;DHT22;7469;50.906;6.952;2023-06-19T09:13:26;29.50;55.40
14755;DHT22;7469;50.906;6.952;2023-06-19T09:15:59;30.00;51.70
14755;DHT22;7469;50.906;6.952;2023-06-19T09:18:41;30.00;50.20
14755;DHT22;7469;50.906;6.952;2023-06-19T09:21:15;29.90;49.80
14755;DHT22;7469;50.906;6.952;2023-06-19T09:23:42;30.10;49.30
14755;DHT22;7469;50.906;6.952;2023-06-19T09:26:11;30.20;47.40
14755;DHT22;7469;50.906;6.952;2023-06-19T09:28:42;30.60;45.80
14755;DHT22;7469;50.906;6.952;2023-06-19T09:31:10;31.10;43.20
14755;DHT22;7469;50.906;6.952;2023-06-19T09:33:41;31.80;40.80
14755;DHT22;7469;50.906;6.952;2023-06-19T09:36:10;32.30;37.70
14755;DHT22;7469;50.906;6.952;2023-06-19T09:38:39;33.00;34.90
14755;DHT22;7469;50.906;6.952;2023-06-19T09:41:08;33.60;32.10
14755;DHT22;7469;50.906;6.952;2023-06-19T09:43:37;34.20;30.00
14755;DHT22;7469;50.906;6.952;2023-06-19T09:46:06;35.10;28.00
14755;DHT22;7469;50.906;6.952;2023-06-19T09:48:35;36.30;25.00
14755;DHT22;7469;50.906;6.952;2023-06-19T09:51:11;37.30;22.40
14755;DHT22;7469;50.906;6.952;2023-06-19T09:53:40;37.90;20.20
14755;DHT22;7469;50.906;6.952;2023-06-19T09:56:09;38.40;18.70
14755;DHT22;7469;50.906;6.952;2023-06-19T09:58:38;38.80;17.70
14755;DHT22;7469;50.906;6.952;2023-06-19T10:01:06;39.00;16.80
14755;DHT22;7469;50.906;6.952;2023-06-19T10:03:36;39.30;16.10
14755;DHT22;7469;50.906;6.952;2023-06-19T10:06:04;39.10;15.50
14755;DHT22;7469;50.906;6.952;2023-06-19T10:08:40;38.80;15.40
14755;DHT22;7469;50.906;6.952;2023-06-19T10:11:08;38.80;15.30
14755;DHT22;7469;50.906;6.952;2023-06-19T10:13:37;38.70;15.20
14755;DHT22;7469;50.906;6.952;2023-06-19T10:16:06;38.50;14.90
14755;DHT22;7469;50.906;6.952;2023-06-19T10:18:45;38.40;14.70
14755;DHT22;7469;50.906;6.952;2023-06-19T10:21:16;38.60;14.60
14755;DHT22;7469;50.906;6.952;2023-06-19T10:23:53;38.70;14.30
14755;DHT22;7469;50.906;6.952;2023-06-19T10:26:30;38.80;14.10
14755;DHT22;7469;50.906;6.952;2023-06-19T10:28:58;38.90;13.70
14755;DHT22;7469;50.906;6.952;2023-06-19T10:31:26;38.80;13.40
14755;DHT22;7469;50.906;6.952;2023-06-19T10:33:56;38.80;13.30
14755;DHT22;7469;50.906;6.952;2023-06-19T10:36:24;38.60;12.90
14755;DHT22;7469;50.906;6.952;2023-06-19T10:38:54;38.70;12.50
14755;DHT22;7469;50.906;6.952;2023-06-19T10:41:24;38.70;12.20
14755;DHT22;7469;50.906;6.952;2023-06-19T10:43:57;38.70;12.00
14755;DHT22;7469;50.906;6.952;2023-06-19T10:46:29;38.70;11.90
14755;DHT22;7469;50.906;6.952;2023-06-19T10:48:58;38.60;11.70
14755;DHT22;7469;50.906;6.952;2023-06-19T10:51:28;38.40;11.70
14755;DHT22;7469;50.906;6.952;2023-06-19T10:53:57;38.20;11.80
14755;DHT22;7469;50.906;6.952;2023-06-19T10:56:26;37.90;12.00
14755;DHT22;7469;50.906;6.952;2023-06-19T10:58:58;37.60;12.00
14755;DHT22;7469;50.906;6.952;2023-06-19T11:01:33;37.40;12.30
14755;DHT22;7469;50.906;6.952;2023-06-19T11:04:04;37.20;12.80
14755;DHT22;7469;50.906;6.952;2023-06-19T11:06:33;36.90;12.90
14755;DHT22;7469;50.906;6.952;2023-06-19T11:09:06;36.70;13.40
14755;DHT22;7469;50.906;6.952;2023-06-19T11:11:36;36.30;13.50
14755;DHT22;7469;50.906;6.952;2023-06-19T11:14:04;36.00;13.30
14755;DHT22;7469;50.906;6.952;2023-06-19T11:16:33;35.50;12.80
14755;DHT22;7469;50.906;6.952;2023-06-19T11:19:01;35.10;13.20
14755;DHT22;7469;50.906;6.952;2023-06-19T11:21:30;34.90;13.90
14755;DHT22;7469;50.906;6.952;2023-06-19T11:23:59;34.60;14.60
14755;DHT22;7469;50.906;6.952;2023-06-19T11:26:29;34.20;15.10
14755;DHT22;7469;50.906;6.952;2023-06-19T11:28:58;33.70;15.60
14755;DHT22;7469;50.906;6.952;2023-06-19T11:31:26;33.40;16.10
14755;DHT22;7469;50.906;6.952;2023-06-19T11:33:58;33.30;16.20
14755;DHT22;7469;50.906;6.952;2023-06-19T11:36:28;33.00;16.40
14755;DHT22;7469;50.906;6.952;2023-06-19T11:38:56;32.90;16.60
14755;DHT22;7469;50.906;6.952;2023-06-19T11:41:28;32.90;16.70
14755;DHT22;7469;50.906;6.952;2023-06-19T11:44:00;32.80;16.40
14755;DHT22;7469;50.906;6.952;2023-06-19T11:46:32;32.60;16.20
14755;DHT22;7469;50.906;6.952;2023-06-19T11:49:11;32.50;16.20
14755;DHT22;7469;50.906;6.952;2023-06-19T11:51:39;32.30;16.30
14755;DHT22;7469;50.906;6.952;2023-06-19T11:54:08;32.20;16.60
14755;DHT22;7469;50.906;6.952;2023-06-19T11:56:38;32.10;16.80
14755;DHT22;7469;50.906;6.952;2023-06-19T11:59:07;31.90;16.90
14755;DHT22;7469;50.906;6.952;2023-06-19T12:01:36;31.70;17.20
14755;DHT22;7469;50.906;6.952;2023-06-19T12:04:05;31.60;17.40
14755;DHT22;7469;50.906;6.952;2023-06-19T12:06:34;31.50;17.50
14755;DHT22;7469;50.906;6.952;2023-06-19T12:09:03;31.40;17.60
14755;DHT22;7469;50.906;6.952;2023-06-19T12:11:32;31.30;17.70
14755;DHT22;7469;50.906;6.952;2023-06-19T12:14:02;31.30;17.80
14755;DHT22;7469;50.906;6.952;2023-06-19T12:16:30;31.10;18.10
14755;DHT22;7469;50.906;6.952;2023-06-19T12:18:58;31.10;18.30
14755;DHT22;7469;50.906;6.952;2023-06-19T12:21:26;31.10;18.50
14755;DHT22;7469;50.906;6.952;2023-06-19T12:24:05;31.00;18.30
14755;DHT22;7469;50.906;6.952;2023-06-19T12:26:34;31.10;18.40
14755;DHT22;7469;50.906;6.952;2023-06-19T12:29:05;31.00;18.50
14755;DHT22;7469;50.906;6.952;2023-06-19T12:31:33;31.00;18.60
14755;DHT22;7469;50.906;6.952;2023-06-19T12:34:02;31.10;18.50
14755;DHT22;7469;50.906;6.952;2023-06-19T12:36:50;31.20;18.50
14755;DHT22;7469;50.906;6.952;2023-06-19T12:39:18;31.40;18.30
14755;DHT22;7469;50.906;6.952;2023-06-19T12:41:46;31.30;18.20
14755;DHT22;7469;50.906;6.952;2023-06-19T12:44:15;31.30;18.20
14755;DHT22;7469;50.906;6.952;2023-06-19T12:46:44;31.30;18.20
14755;DHT22;7469;50.906;6.952;2023-06-19T12:49:12;31.20;18.40
14755;DHT22;7469;50.906;6.952;2023-06-19T12:51:40;31.30;18.70
14755;DHT22;7469;50.906;6.952;2023-06-19T12:54:08;31.30;18.80
14755;DHT22;7469;50.906;6.952;2023-06-19T12:56:36;31.40;18.90
14755;DHT22;7469;50.906;6.952;2023-06-19T12:59:04;31.50;18.90
14755;DHT22;7469;50.906;6.952;2023-06-19T13:01:33;31.60;18.80
14755;DHT22;7469;50.906;6.952;2023-06-19T13:04:01;31.70;18.50
14755;DHT22;7469;50.906;6.952;2023-06-19T13:06:29;31.80;18.40
14755;DHT22;7469;50.906;6.952;2023-06-19T13:08:57;31.90;18.30
14755;DHT22;7469;50.906;6.952;2023-06-19T13:11:25;31.90;18.10
14755;DHT22;7469;50.906;6.952;2023-06-19T13:13:53;32.00;18.00
14755;DHT22;7469;50.906;6.952;2023-06-19T13:16:22;32.20;17.80
14755;DHT22;7469;50.906;6.952;2023-06-19T13:19:13;32.30;17.80
14755;DHT22;7469;50.906;6.952;2023-06-19T13:21:41;32.40;17.80
14755;DHT22;7469;50.906;6.952;2023-06-19T13:24:09;32.40;17.80
14755;DHT22;7469;50.906;6.952;2023-06-19T13:26:37;32.40;17.80
14755;DHT22;7469;50.906;6.952;2023-06-19T13:29:05;32.40;17.70
14755;DHT22;7469;50.906;6.952;2023-06-19T13:31:33;32.40;17.40
14755;DHT22;7469;50.906;6.952;2023-06-19T13:34:01;32.40;17.30
14755;DHT22;7469;50.906;6.952;2023-06-19T13:36:31;32.40;17.40
14755;DHT22;7469;50.906;6.952;2023-06-19T13:38:59;32.40;17.20
14755;DHT22;7469;50.906;6.952;2023-06-19T13:41:27;32.50;17.20
14755;DHT22;7469;50.906;6.952;2023-06-19T13:43:57;32.50;17.20
14755;DHT22;7469;50.906;6.952;2023-06-19T13:46:25;32.60;17.20
14755;DHT22;7469;50.906;6.952;2023-06-19T13:48:53;32.80;17.20
14755;DHT22;7469;50.906;6.952;2023-06-19T13:51:22;32.90;17.00
14755;DHT22;7469;50.906;6.952;2023-06-19T13:53:51;32.90;16.80
14755;DHT22;7469;50.906;6.952;2023-06-19T13:56:21;33.00;16.80
14755;DHT22;7469;50.906;6.952;2023-06-19T13:58:50;33.00;16.70
14755;DHT22;7469;50.906;6.952;2023-06-19T14:01:18;33.10;16.10
14755;DHT22;7469;50.906;6.952;2023-06-19T14:03:46;33.00;16.10
14755;DHT22;7469;50.906;6.952;2023-06-19T14:06:14;33.20;16.30
14755;DHT22;7469;50.906;6.952;2023-06-19T14:08:42;33.10;16.30
14755;DHT22;7469;50.906;6.952;2023-06-19T14:11:11;33.20;16.50
14755;DHT22;7469;50.906;6.952;2023-06-19T14:13:39;33.10;16.40
14755;DHT22;7469;50.906;6.952;2023-06-19T14:16:07;33.20;16.50
14755;DHT22;7469;50.906;6.952;2023-06-19T14:18:35;33.20;16.60
14755;DHT22;7469;50.906;6.952;2023-06-19T14:21:04;33.20;16.50
14755;DHT22;7469;50.906;6.952;2023-06-19T14:23:32;33.40;16.30
14755;DHT22;7469;50.906;6.952;2023-06-19T14:26:00;33.40;16.20
14755;DHT22;7469;50.906;6.952;2023-06-19T14:28:30;33.20;16.10
14755;DHT22;7469;50.906;6.952;2023-06-19T14:30:59;33.20;16.20
14755;DHT22;7469;50.906;6.952;2023-06-19T14:33:27;33.20;16.20
14755;DHT22;7469;50.906;6.952;2023-06-19T14:35:55;33.10;16.10
14755;DHT22;7469;50.906;6.952;2023-06-19T14:38:23;33.20;16.20
14755;DHT22;7469;50.906;6.952;2023-06-19T14:40:54;33.10;16.10
14755;DHT22;7469;50.906;6.952;2023-06-19T14:43:23;33.10;15.90
14755;DHT22;7469;50.906;6.952;2023-06-19T14:45:53;33.10;16.00
14755;DHT22;7469;50.906;6.952;2023-06-19T14:48:21;33.10;15.90
14755;DHT22;7469;50.906;6.952;2023-06-19T14:50:49;33.20;16.00
14755;DHT22;7469;50.906;6.952;2023-06-19T14:53:17;33.20;16.10
14755;DHT22;7469;50.906;6.952;2023-06-19T14:55:45;33.30;16.10
14755;DHT22;7469;50.906;6.952;2023-06-19T14:58:13;33.20;16.00
14755;DHT22;7469;50.906;6.952;2023-06-19T15:00:42;33.30;16.20
14755;DHT22;7469;50.906;6.952;2023-06-19T15:03:11;33.40;16.10
14755;DHT22;7469;50.906;6.952;2023-06-19T15:05:39;33.40;16.10
14755;DHT22;7469;50.906;6.952;2023-06-19T15:08:07;33.30;15.90
14755;DHT22;7469;50.906;6.952;2023-06-19T15:10:36;33.00;15.80
14755;DHT22;7469;50.906;6.952;2023-06-19T15:13:04;32.80;16.20
14755;DHT22;7469;50.906;6.952;2023-06-19T15:15:32;32.90;16.30
14755;DHT22;7469;50.906;6.952;2023-06-19T15:18:00;33.00;16.30
14755;DHT22;7469;50.906;6.952;2023-06-19T15:20:30;33.00;16.30
14755;DHT22;7469;50.906;6.952;2023-06-19T15:22:58;33.00;16.10
14755;DHT22;7469;50.906;6.952;2023-06-19T15:25:26;33.00;16.10
14755;DHT22;7469;50.906;6.952;2023-06-19T15:27:54;33.00;16.10
14755;DHT22;7469;50.906;6.952;2023-06-19T15:30:22;33.00;16.30
14755;DHT22;7469;50.906;6.952;2023-06-19T15:32:51;33.10;16.20
14755;DHT22;7469;50.906;6.952;2023-06-19T15:35:19;33.00;16.20
14755;DHT22;7469;50.906;6.952;2023-06-19T15:37:48;33.00;16.30
14755;DHT22;7469;50.906;6.952;2023-06-19T15:40:16;33.00;16.30
14755;DHT22;7469;50.906;6.952;2023-06-19T15:42:44;33.00;16.20
14755;DHT22;7469;50.906;6.952;2023-06-19T15:45:12;32.90;16.20
14755;DHT22;7469;50.906;6.952;2023-06-19T15:47:41;32.90;16.30
14755;DHT22;7469;50.906;6.952;2023-06-19T15:50:09;32.90;16.40
14755;DHT22;7469;50.906;6.952;2023-06-19T15:52:37;32.90;16.50
14755;DHT22;7469;50.906;6.952;2023-06-19T15:55:07;32.80;16.40
14755;DHT22;7469;50.906;6.952;2023-06-19T15:57:35;32.80;16.50